Flight Track Log - Related Links

Times and Time Zones

All times are in EDT time to prevent confusion due to time zone crossing. See the SWA554 flight status page for this flight to view local times or setup timezone preferences in your user account.


Time Position Orientation Groundspeed Altitude Reporting Facility
EDT Latitude Longitude Course Direction KTS MPH feet Rate Location/Type
Wed 02:59:22 PM 42.9500 -87.9000 360° North 135 155 1,500  Level Milwaukee TRACON
Wed 02:59:46 PM 42.9667 -87.9000 360° North 140 161 2,300 2,913 Climbing Milwaukee TRACON
Wed 03:01:40 PM 42.9897 -88.0106 286° West 215 247 8,200 3,086 Climbing Chicago Center
Wed 03:02:41 PM 42.9264 -88.0303 193° South 258 297 11,300 2,634 Climbing Chicago Center
Wed 03:03:43 PM 42.8453 -88.0350 182° South 286 329 13,600 2,390 Climbing Chicago Center
Wed 03:04:44 PM 42.7550 -88.0331 179° South 321 369 16,200 2,732 Climbing Chicago Center
Wed 03:05:46 PM 42.6617 -88.0172 173° South 337 388 19,200 2,683 Climbing Chicago Center
Wed 03:06:47 PM 42.5658 -87.9622 157° South 378 435 21,700 2,459 Climbing Chicago Center
Wed 03:07:48 PM 42.4556 -87.8686 148° Southeast 400 460 24,200 2,341 Climbing Chicago Center
Wed 03:08:50 PM 42.3592 -87.7861 148° Southeast 408 470 26,500 2,390 Climbing Chicago Center
Wed 03:09:51 PM 42.2550 -87.6969 148° Southeast 416 479 29,100 2,244 Climbing Chicago Center
Wed 03:10:53 PM 42.1556 -87.6117 148° Southeast 422 486 31,100 1,756 Climbing Chicago Center
Wed 03:11:54 PM 42.0528 -87.5247 148° Southeast 434 499 32,700 1,659 Climbing Chicago Center
Wed 03:12:56 PM 41.9786 -87.3867 126° Southeast 481 554 34,500 1,756 Climbing Chicago Center
Wed 03:13:57 PM 41.9747 -87.2017 92° East 497 572 36,300 1,707 Climbing Chicago Center
Wed 03:14:59 PM 41.9722 -87.0169 91° East 496 571 38,000 1,610 Climbing Chicago Center
Wed 03:16:00 PM 41.9686 -86.8344 91° East 490 564 39,600 1,475 Climbing Chicago Center
Wed 03:17:01 PM 41.9644 -86.6356 92° East 482 555 41,000 683 Climbing Chicago Center
Wed 03:18:03 PM 41.9617 -86.4569 91° East 479 551 41,000  Level Chicago Center
Wed 03:19:04 PM 41.9567 -86.2767 92° East 483 556 41,000  Level Chicago Center
Wed 03:20:06 PM 41.9328 -86.1017 100° East 477 549 41,000  Level Chicago Center
Wed 03:21:07 PM 41.9244 -85.9250 94° East 480 552 41,000  Level Chicago Center
Wed 03:22:09 PM 41.9550 -85.7481 77° East 485 558 41,000  Level Chicago Center
Wed 03:23:10 PM 41.9861 -85.5700 77° East 486 559 41,000  Level Chicago Center
Wed 03:24:11 PM 42.0175 -85.3775 78° East 485 558 41,000  Level Chicago Center
Wed 03:24:45 PM 42.0325 -85.2831 78° East 471 542 41,000  Level Cleveland Center
Wed 03:25:45 PM 42.0606 -85.1061 78° East 471 542 41,000  Level Cleveland Center
Wed 03:26:45 PM 42.0861 -84.9289 79° East 481 554 41,000  Level Cleveland Center
Wed 03:27:45 PM 42.1164 -84.7319 78° East 481 554 41,000  Level Cleveland Center
Wed 03:28:45 PM 42.1386 -84.5767 79° East 481 554 41,000  Level Cleveland Center
Wed 03:29:45 PM 42.1694 -84.4047 76° East 481 554 41,000  Level Cleveland Center
Wed 03:30:45 PM 42.2000 -84.2300 77° East 481 554 41,000  Level Cleveland Center
Wed 03:31:45 PM 42.2347 -84.0525 75° East 481 554 41,000  Level Cleveland Center
Wed 03:32:45 PM 42.2692 -83.8775 75° East 481 554 41,000  Level Cleveland Center
Wed 03:33:45 PM 42.3053 -83.7025 74° East 487 560 41,000  Level Cleveland Center
Wed 03:34:45 PM 42.3314 -83.5014 80° East 494 568 41,000  Level Cleveland Center
Wed 03:35:45 PM 42.3506 -83.3197 82° East 494 568 41,000  Level Cleveland Center
Wed 03:36:45 PM 42.3486 -83.1342 91° East 486 559 41,000  Level Cleveland Center
Wed 03:37:45 PM 42.3397 -82.9597 94° East 474 545 41,000  Level Cleveland Center
Wed 03:38:45 PM 42.3139 -82.7875 101° East 474 545 41,000  Level Cleveland Center
Wed 03:39:45 PM 42.2628 -82.6256 113° Southeast 464 534 41,000  Level Cleveland Center
Wed 03:40:45 PM 42.2092 -82.4669 114° Southeast 464 534 41,000  Level Cleveland Center
Wed 03:41:45 PM 42.1447 -82.3194 120° Southeast 454 522 41,000  Level Cleveland Center
Wed 03:42:45 PM 42.0528 -82.2050 137° Southeast 454 522 41,000  Level Cleveland Center
Wed 03:43:45 PM 41.9725 -82.1361 147° Southeast 432 497 41,000  Level Cleveland Center
Wed 03:44:45 PM 41.8586 -82.0581 153° Southeast 423 487 41,000  Level Cleveland Center
Wed 03:45:45 PM 41.7472 -81.9831 153° Southeast 437 503 41,000  Level Cleveland Center
Wed 03:46:45 PM 41.6397 -81.9083 153° Southeast 442 509 41,000  Level Cleveland Center
Wed 03:47:45 PM 41.5175 -81.8256 153° Southeast 450 518 41,000  Level Cleveland Center
Wed 03:48:45 PM 41.4017 -81.7458 153° Southeast 448 516 41,000  Level Cleveland Center
Wed 03:49:45 PM 41.3022 -81.6722 151° Southeast 448 516 41,000  Level Cleveland Center
Wed 03:50:45 PM 41.1906 -81.5958 153° Southeast 448 516 41,000  Level Cleveland Center
Wed 03:51:45 PM 41.0722 -81.5194 154° Southeast 454 522 41,000  Level Cleveland Center
Wed 03:52:45 PM 40.9622 -81.4464 153° Southeast 454 522 41,000  Level Cleveland Center
Wed 03:53:45 PM 40.8483 -81.3681 153° Southeast 454 522 41,000  Level Cleveland Center
Wed 03:54:45 PM 40.7342 -81.2928 153° Southeast 454 522 41,000  Level Cleveland Center
Wed 03:55:45 PM 40.6117 -81.2122 153° Southeast 454 522 41,000  Level Cleveland Center
Wed 03:56:45 PM 40.5119 -81.1403 151° Southeast 449 517 41,000 -50 Level Cleveland Center
Wed 03:57:45 PM 40.4164 -81.0275 138° Southeast 449 517 40,900 -600 Descending Cleveland Center
Wed 03:58:45 PM 40.3419 -80.8908 126° Southeast 458 527 39,800 -1,000 Descending Cleveland Center
Wed 03:59:45 PM 40.2672 -80.7544 126° Southeast 458 527 38,900 -900 Descending Cleveland Center
Wed 04:00:45 PM 40.1922 -80.6211 126° Southeast 458 527 38,000 -1,050 Descending Cleveland Center
Wed 04:01:45 PM 40.1067 -80.4744 127° Southeast 464 534 36,800 -1,050 Descending Cleveland Center
Wed 04:02:45 PM 40.0294 -80.3392 127° Southeast 464 534 35,900 -900 Descending Cleveland Center
Wed 04:03:45 PM 39.9686 -80.1931 118° Southeast 464 534 35,000 -450 Descending Cleveland Center
Wed 04:04:45 PM 39.9242 -80.0389 111° Southeast 454 522 35,000  Level Cleveland Center
Wed 04:05:45 PM 39.8794 -79.8797 110° East 454 522 35,000 -500 Level Cleveland Center
Wed 04:06:45 PM 39.8367 -79.7233 110° East 454 522 34,000 -1,400 Descending Cleveland Center
Wed 04:07:45 PM 39.7936 -79.5644 109° East 459 528 32,200 -2,100 Descending Cleveland Center
Wed 04:08:45 PM 39.7506 -79.4086 110° East 459 528 29,800 -2,350 Descending Cleveland Center
Wed 04:09:45 PM 39.7092 -79.2556 109° East 459 528 27,500 -2,341 Descending Cleveland Center
Wed 04:10:07 PM 39.6969 -79.2081 108° East 457 526 26,600 -1,829 Descending Washington Center
Wed 04:11:07 PM 39.6575 -79.0578 109° East 435 501 25,000 -800 Descending Washington Center
Wed 04:12:07 PM 39.6200 -78.9186 109° East 422 486 25,000 -300 Level Washington Center
Wed 04:13:07 PM 39.5906 -78.7744 105° East 417 480 24,400 -1,250 Descending Washington Center
Wed 04:14:07 PM 39.5586 -78.6306 106° East 417 480 22,500 -2,100 Descending Washington Center
Wed 04:15:07 PM 39.5286 -78.4947 106° East 412 474 20,200 -2,050 Descending Washington Center
Wed 04:16:07 PM 39.4986 -78.3589 106° East 395 455 18,400 -2,050 Descending Washington Center
Wed 04:17:07 PM 39.4683 -78.2261 106° East 389 448 16,100 -1,750 Descending Washington Center
Wed 04:18:07 PM 39.4419 -78.0933 104° East 383 441 14,900 -1,050 Descending Washington Center
Wed 04:19:07 PM 39.4447 -77.9564 88° East 378 435 14,000 -850 Descending Washington Center
Wed 04:20:07 PM 39.4428 -77.8300 91° East 388 447 13,200 -850 Descending Washington Center
Wed 04:21:07 PM 39.4436 -77.6769 90° East 388 447 12,300 -950 Descending Washington Center
Wed 04:22:07 PM 39.4456 -77.5589 89° East 374 430 11,300 -650 Descending Washington Center
Wed 04:23:07 PM 39.4458 -77.4136 90° East 368 423 11,000 -200 Descending Washington Center
Wed 04:23:37 PM 39.4500 -77.3333 86° East 368 423 11,000 -125 Level Potomac TRACON
Wed 04:24:43 PM 39.4667 -77.2000 81° East 372 428 10,800 -600 Descending Potomac TRACON
Wed 04:25:37 PM 39.4667 -77.0833 90° East 349 402 9,800 -1,200 Descending Potomac TRACON
Wed 04:26:43 PM 39.4667 -76.9500 90° East 322 371 8,400 -1,381 Descending Potomac TRACON
Wed 04:27:43 PM 39.4667 -76.8500 90° East 310 357 6,900 -1,450 Descending Potomac TRACON
Wed 04:28:43 PM 39.4667 -76.7333 90° East 305 351 5,500 -1,000 Descending Potomac TRACON
Wed 04:29:37 PM 39.4500 -76.6667 108° East 285 328 5,000 -750 Descending Potomac TRACON
Wed 04:30:43 PM 39.3833 -76.5833 136° Southeast 280 322 4,000 -952 Descending Potomac TRACON
Wed 04:31:43 PM 39.3167 -76.5333 150° Southeast 272 313 3,000 -526 Descending Potomac TRACON
Wed 04:32:37 PM 39.2500 -76.5167 169° South 254 292 3,000 -300 Level Potomac TRACON
Wed 04:33:43 PM 39.1833 -76.5000 169° South 221 254 2,400 -476 Descending Potomac TRACON
Wed 04:34:43 PM 39.1333 -76.5167 194° South 196 226 2,000 -397 Descending Potomac TRACON
Wed 04:35:44 PM 39.1000 -76.5500 218° Southwest 169 194 1,600 -261 Descending Potomac TRACON
Wed 04:36:38 PM 39.1167 -76.6167 288° West 166 191 1,500 -500 Descending Potomac TRACON
Wed 04:37:44 PM 39.1500 -76.6500 322° Northwest 143 165 600 -818 Descending Potomac TRACON

Login

Don't have an account? Register now (free) for customized features, flight alerts, and more!